Butler, Kentucky
Current Conditions -  °F | °C
As of 3:53 PM on Thursday 20 Nov 2014 (Local Time) from KLUK Reporting Station
Clear Clear  
Wind Chill: 23°   Ceiling: Unl
Heat Index: 32°   Visibility: 10mi
Dew Point: 15°   Wind: 13mph
Humidity: 50%   Direction: 270°W
Pressure: 30.16"   Gusts: NA
Location:  38.79°N, 84.37°W
Report Text: KLUK 202053Z 27011KT 10SM CLR 00/M09 A3016 RMK AO2 SLP219 T00001094 55004
Loading
Personal Weather Stations






























Interactive Weather Map New forecast layout! Learn more

10-Day Weather Forecast

Advertisements
Track Severe Weather on mobile